Time;durP1;ratioP1;P1;durP2;ratioP2;P2;SDS_P1;SDS_P2;PMS_P1;PMS_P2;Temp;Humidity;BMP_temperature;BMP_pressure;BME280_temperature;BME280_humidity;BME280_pressure;Samples;Min_cycle;Max_cycle;Signal;HPM_P1;HPM_P2
2021/07/06 00:00:23;;;;;;;12.07;9.30;;;;;;;18.72;73.04;98767.37;4571122;76;21028;-80
2021/07/06 00:06:26;;;;;;;13.05;8.70;;;;;;;18.69;73.29;98773.19;4581839;76;21026;-80
2021/07/06 00:12:27;;;;;;;15.48;9.33;;;;;;;18.60;73.56;98774.37;4577823;76;21499;-79
2021/07/06 00:18:28;;;;;;;16.60;10.23;;;;;;;18.47;73.80;98767.20;4578892;76;22166;-79
2021/07/06 00:24:30;;;;;;;13.90;10.58;;;;;;;18.41;74.15;98766.16;4583468;76;21660;-79
2021/07/06 00:30:32;;;;;;;17.25;10.25;;;;;;;18.38;74.45;98762.87;4582849;76;21524;-79
2021/07/06 00:36:33;;;;;;;15.32;10.43;;;;;;;18.34;74.58;98774.59;4581070;76;21029;-79
2021/07/06 00:42:36;;;;;;;11.28;8.70;;;;;;;18.31;74.80;98774.86;4581197;76;21052;-79
2021/07/06 00:48:38;;;;;;;14.15;8.00;;;;;;;18.27;74.96;98781.11;4579922;75;21067;-79
2021/07/06 00:54:39;;;;;;;12.82;8.33;;;;;;;18.23;75.11;98783.16;4583163;77;21047;-79
2021/07/06 01:00:41;;;;;;;13.78;9.58;;;;;;;18.16;75.37;98790.27;4577253;76;21059;-79
2021/07/06 01:06:42;;;;;;;15.32;9.28;;;;;;;18.15;75.43;98796.99;4496274;78;21546;-79
2021/07/06 01:12:46;;;;;;;15.18;10.45;;;;;;;18.11;75.78;98799.08;4504858;78;21016;-80
2021/07/06 01:18:48;;;;;;;13.75;8.98;;;;;;;18.08;75.70;98801.33;4487431;78;21022;-79
2021/07/06 01:24:49;;;;;;;16.02;9.05;;;;;;;17.92;76.12;98806.81;4480527;78;21060;-80
2021/07/06 01:30:51;;;;;;;12.00;7.65;;;;;;;17.94;76.38;98811.92;4494518;78;20978;-79
2021/07/06 01:36:53;;;;;;;13.32;8.70;;;;;;;17.82;76.35;98799.49;4488197;78;20996;-80
2021/07/06 01:42:56;;;;;;;12.40;9.53;;;;;;;17.62;76.37;98802.88;4480731;78;21088;-79
2021/07/06 01:48:57;;;;;;;13.50;9.43;;;;;;;17.46;76.51;98811.10;4582810;76;21002;-78
2021/07/06 01:54:58;;;;;;;11.63;8.48;;;;;;;17.33;77.03;98810.75;4576405;76;21825;-79
2021/07/06 02:01:01;;;;;;;13.72;8.95;;;;;;;17.36;77.24;98818.99;4584293;76;21069;-79
2021/07/06 02:07:03;;;;;;;11.50;9.15;;;;;;;17.18;77.06;98816.55;4573840;76;20980;-79
2021/07/06 02:13:14;;;;;;;14.15;9.15;;;;;;;17.08;77.48;98818.92;4543875;77;21026;-79
2021/07/06 02:19:16;;;;;;;17.12;10.18;;;;;;;16.96;77.55;98807.06;4586377;76;21054;-80
2021/07/06 02:25:19;;;;;;;11.70;9.40;;;;;;;16.76;77.66;98809.58;4574071;76;21028;-79
2021/07/06 02:31:20;;;;;;;10.15;8.55;;;;;;;16.66;78.05;98814.70;4576555;76;21036;-79
2021/07/06 02:37:22;;;;;;;12.10;8.88;;;;;;;16.52;78.42;98817.06;4584358;76;21060;-79
2021/07/06 02:43:23;;;;;;;10.50;8.63;;;;;;;16.51;78.62;98812.75;4579962;76;21069;-79
2021/07/06 02:49:26;;;;;;;10.18;7.03;;;;;;;16.52;79.18;98824.59;4563816;76;21560;-79
2021/07/06 02:55:27;;;;;;;12.53;8.40;;;;;;;16.68;79.32;98827.48;4547097;77;21032;-80
2021/07/06 03:01:29;;;;;;;11.95;7.95;;;;;;;16.70;78.95;98831.41;4549550;76;21078;-79
2021/07/06 03:07:30;;;;;;;14.00;8.65;;;;;;;16.71;79.35;98837.72;4546521;76;21841;-79
2021/07/06 03:13:32;;;;;;;12.37;8.78;;;;;;;16.68;79.34;98831.03;4281283;78;26532;-80
2021/07/06 03:19:33;;;;;;;13.75;8.15;;;;;;;16.66;79.51;98827.14;4265001;82;21542;-79
2021/07/06 03:25:35;;;;;;;11.95;8.55;;;;;;;16.45;79.13;98824.69;4268236;82;21078;-78
2021/07/06 03:31:36;;;;;;;10.68;8.13;;;;;;;16.44;79.93;98820.34;4265304;81;21066;-78
2021/07/06 03:37:38;;;;;;;11.05;9.50;;;;;;;16.48;80.06;98826.02;4266027;81;21735;-79
2021/07/06 03:43:39;;;;;;;12.73;9.03;;;;;;;16.45;80.16;98835.15;4158835;84;21536;-80
2021/07/06 03:49:40;;;;;;;11.88;8.73;;;;;;;16.60;80.63;98842.63;4237181;83;21594;-79
2021/07/06 03:55:42;;;;;;;11.00;7.80;;;;;;;16.77;80.63;98844.33;4239580;83;21046;-80
2021/07/06 04:01:43;;;;;;;11.53;8.13;;;;;;;16.79;80.55;98845.47;4175868;84;21553;-79
2021/07/06 04:07:46;;;;;;;10.75;8.00;;;;;;;16.90;80.69;98841.14;4240893;83;21055;-79
2021/07/06 04:13:47;;;;;;;14.43;8.38;;;;;;;16.96;80.74;98831.19;4174981;84;21066;-79
2021/07/06 04:19:49;;;;;;;10.03;8.03;;;;;;;16.98;80.91;98835.08;4233861;83;21543;-79
2021/07/06 04:25:50;;;;;;;12.80;8.18;;;;;;;17.10;80.98;98841.38;4174792;83;21093;-79
2021/07/06 04:31:53;;;;;;;13.98;9.10;;;;;;;17.26;80.86;98845.48;4178500;84;21529;-79
2021/07/06 04:37:54;;;;;;;15.95;9.40;;;;;;;17.41;80.79;98843.41;4279906;82;21714;-79
2021/07/06 04:43:55;;;;;;;14.40;10.38;;;;;;;17.58;80.65;98845.68;4296581;81;21057;-79
2021/07/06 04:49:57;;;;;;;14.90;10.48;;;;;;;17.69;80.56;98850.41;4298513;82;21019;-79
2021/07/06 04:55:59;;;;;;;15.25;10.72;;;;;;;17.77;80.52;98847.09;4294608;82;21565;-79
2021/07/06 05:02:01;;;;;;;10.63;8.95;;;;;;;17.88;80.47;98850.42;4297645;81;21109;-79
2021/07/06 05:08:03;;;;;;;11.03;8.63;;;;;;;17.95;80.51;98844.72;4292714;82;21034;-80
2021/07/06 05:14:04;;;;;;;11.48;8.98;;;;;;;18.07;80.52;98846.83;4264218;82;21158;-80
2021/07/06 05:20:07;;;;;;;13.10;9.15;;;;;;;18.22;80.66;98861.17;4259930;82;21027;-79
2021/07/06 05:26:09;;;;;;;14.80;9.03;;;;;;;18.41;80.52;98868.10;4256900;82;21011;-80
2021/07/06 05:32:10;;;;;;;11.78;8.70;;;;;;;18.64;80.55;98868.56;4259449;82;21059;-81
2021/07/06 05:38:12;;;;;;;9.93;8.50;;;;;;;18.96;80.50;98872.75;4200881;83;21079;-79
2021/07/06 05:44:14;;;;;;;17.32;10.00;;;;;;;19.24;80.37;98863.72;4269615;82;21062;-79
2021/07/06 05:50:16;;;;;;;17.67;9.73;;;;;;;19.48;79.92;98867.85;4259042;82;21054;-79
2021/07/06 05:56:19;;;;;;;17.25;9.63;;;;;;;19.70;79.62;98869.47;4256814;82;21103;-79
2021/07/06 06:02:20;;;;;;;14.78;9.68;;;;;;;19.92;79.20;98871.83;4268395;82;21019;-79
2021/07/06 06:08:22;;;;;;;17.07;10.55;;;;;;;20.13;78.90;98868.42;4254893;82;21094;-79
2021/07/06 06:14:23;;;;;;;15.95;10.45;;;;;;;20.23;78.68;98872.93;4262369;82;21110;-79
2021/07/06 06:20:24;;;;;;;14.58;9.58;;;;;;;20.36;78.52;98881.29;4273037;82;21031;-81
2021/07/06 06:26:25;;;;;;;17.80;8.98;;;;;;;20.55;78.35;98888.03;4256207;82;21356;-81
2021/07/06 06:32:27;;;;;;;13.15;8.85;;;;;;;20.72;77.95;98890.11;4263665;82;21007;-80
2021/07/06 06:38:28;;;;;;;12.80;8.10;;;;;;;20.96;77.17;98892.73;4266590;82;21050;-80
2021/07/06 06:44:29;;;;;;;12.25;7.55;;;;;;;21.21;76.65;98896.27;4172401;84;21088;-80
2021/07/06 06:50:31;;;;;;;11.93;7.75;;;;;;;21.36;75.57;98900.12;4236207;83;21161;-79
2021/07/06 06:56:32;;;;;;;14.30;7.97;;;;;;;21.61;75.50;98892.33;4179043;84;21045;-80
2021/07/06 07:02:34;;;;;;;11.70;7.25;;;;;;;21.94;74.56;98895.56;4280489;82;21041;-80
2021/07/06 07:08:36;;;;;;;8.13;6.47;;;;;;;22.44;74.19;98897.43;4283208;82;21018;-80
2021/07/06 07:14:37;;;;;;;4.20;3.80;;;;;;;22.95;73.67;98897.25;4281371;82;21061;-81
2021/07/06 07:20:39;;;;;;;5.67;4.10;;;;;;;23.70;71.82;98893.53;4278947;82;21042;-80
2021/07/06 07:26:40;;;;;;;5.58;4.20;;;;;;;24.53;71.30;98893.16;4277353;82;21010;-80
2021/07/06 07:32:42;;;;;;;5.60;4.42;;;;;;;25.19;69.46;98893.20;4283106;82;21014;-80
2021/07/06 07:38:44;;;;;;;7.12;3.47;;;;;;;25.71;68.10;98889.16;4277682;82;21086;-81
2021/07/06 07:44:45;;;;;;;9.68;4.00;;;;;;;26.10;66.38;98878.10;4277749;82;20999;-81
2021/07/06 07:50:47;;;;;;;5.03;3.90;;;;;;;26.18;65.52;98877.09;4275467;82;21004;-80
2021/07/06 07:56:49;;;;;;;4.53;4.12;;;;;;;26.35;64.62;98885.79;4282813;82;21004;-80
2021/07/06 08:02:50;;;;;;;6.03;3.45;;;;;;;26.41;63.36;98891.66;4283040;82;21035;-80
2021/07/06 08:08:51;;;;;;;4.12;3.72;;;;;;;26.30;62.63;98893.48;4280189;82;21082;-81
2021/07/06 08:14:53;;;;;;;5.78;3.95;;;;;;;26.31;61.89;98888.03;4277639;82;21070;-79
2021/07/06 08:20:55;;;;;;;7.85;3.95;;;;;;;26.18;58.31;98886.91;4279692;82;21134;-80
2021/07/06 08:26:56;;;;;;;4.30;3.90;;;;;;;26.08;56.91;98883.41;4282731;82;21008;-80
2021/07/06 08:32:57;;;;;;;4.10;3.50;;;;;;;25.93;58.23;98881.16;4281696;82;21063;-81
2021/07/06 08:38:59;;;;;;;4.87;4.37;;;;;;;26.05;58.58;98887.19;4280247;81;21203;-81
2021/07/06 08:45:00;;;;;;;5.05;3.75;;;;;;;26.23;58.16;98882.65;4307791;81;21037;-80
2021/07/06 08:51:04;;;;;;;5.37;4.00;;;;;;;26.25;57.64;98873.13;4289086;82;21117;-80
2021/07/06 08:57:06;;;;;;;4.55;4.15;;;;;;;26.38;56.33;98876.41;4304081;81;21090;-80
2021/07/06 09:03:09;;;;;;;4.28;3.87;;;;;;;26.28;56.68;98887.59;4305946;82;21596;-80
2021/07/06 09:09:23;;;;;;;8.48;3.95;;;;;;;26.16;55.84;98879.59;4254200;82;21050;-81
2021/07/06 09:15:31;;;;;;;5.37;3.77;;;;;;;26.23;55.86;98880.63;4276595;82;21070;-80
2021/07/06 09:21:32;;;;;;;6.92;4.12;;;;;;;26.38;56.19;98874.38;4264517;82;21107;-80
2021/07/06 09:27:39;;;;;;;6.00;3.80;;;;;;;26.56;55.58;98874.16;4268676;82;21094;-80
2021/07/06 09:34:03;;;;;;;5.47;3.90;;;;;;;26.72;55.00;98863.88;4266786;82;21073;-81
2021/07/06 09:40:21;;;;;;;5.08;3.83;;;;;;;26.81;54.43;98864.41;4258689;82;21014;-83
2021/07/06 09:46:24;;;;;;;6.30;4.03;;;;;;;26.95;54.43;98866.41;4195212;83;21541;-81
2021/07/06 09:52:26;;;;;;;5.55;3.62;;;;;;;27.23;53.31;98857.73;4275181;82;21022;-81
2021/07/06 09:58:27;;;;;;;4.55;4.15;;;;;;;27.30;52.81;98864.36;4198328;83;21108;-83
2021/07/06 10:04:29;;;;;;;5.20;3.77;;;;;;;27.60;53.08;98860.94;4270801;82;21074;-80
2021/07/06 10:10:30;;;;;;;4.67;4.00;;;;;;;27.87;51.98;98856.13;4281261;82;21029;-81
2021/07/06 10:16:32;;;;;;;4.10;3.77;;;;;;;28.16;52.30;98856.72;4271400;82;21604;-81
2021/07/06 10:22:34;;;;;;;4.53;4.10;;;;;;;28.47;51.84;98847.55;4248132;82;22365;-80
2021/07/06 10:28:35;;;;;;;4.53;3.80;;;;;;;28.69;51.39;98840.05;4261788;82;21190;-80
2021/07/06 10:34:44;;;;;;;4.47;3.85;;;;;;;28.83;50.76;98836.97;4264677;82;21111;-81
2021/07/06 10:40:45;;;;;;;7.33;4.30;;;;;;;29.05;50.29;98840.69;4266733;82;21612;-80
2021/07/06 10:46:48;;;;;;;5.83;3.80;;;;;;;29.17;50.04;98837.97;4280552;80;89257;-80
2021/07/06 10:53:15;;;;;;;5.42;4.67;;;;;;;29.07;47.57;98827.53;4335393;81;21136;-80
2021/07/06 10:59:24;;;;;;;4.95;4.42;;;;;;;29.50;48.80;98816.98;4353749;81;21090;-81
2021/07/06 11:05:32;;;;;;;4.30;3.90;;;;;;;29.65;48.13;98806.28;4380081;81;21008;-80
2021/07/06 11:11:34;;;;;;;10.38;4.37;;;;;;;30.06;48.25;98808.19;4377401;81;21069;-81
2021/07/06 11:17:45;;;;;;;3.80;3.50;;;;;;;30.45;48.79;98811.05;4375011;81;21018;-78
2021/07/06 11:23:51;;;;;;;7.47;4.03;;;;;;;30.94;47.32;98797.55;4370863;81;21033;-81
2021/07/06 11:29:56;;;;;;;;;;;;;;;31.15;44.05;98802.99;4352369;81;21064;-81
2021/07/06 11:36:19;;;;;;;3.50;3.17;;;;;;;31.62;43.66;98796.14;4361526;80;20163;-79
2021/07/06 11:42:29;;;;;;;3.47;3.17;;;;;;;31.81;43.69;98787.80;4403240;79;21091;-80
2021/07/06 11:48:40;;;;;;;4.12;3.72;;;;;;;32.05;43.75;98782.91;4402710;79;22949;-81
2021/07/06 11:54:44;;;;;;;6.08;4.10;;;;;;;32.48;43.75;98783.23;4341383;80;21477;-80
2021/07/06 12:00:46;;;;;;;3.85;3.55;;;;;;;32.78;42.70;98766.23;4341853;80;31666;-81
2021/07/06 12:06:49;;;;;;;4.00;3.60;;;;;;;32.86;42.08;98772.17;4340639;81;21035;-83
2021/07/06 12:12:55;;;;;;;4.40;3.90;;;;;;;32.48;41.29;98763.40;4351556;80;21079;-81
2021/07/06 12:19:10;;;;;;;4.62;4.12;;;;;;;31.61;36.41;98757.06;4342135;80;21078;-80
2021/07/06 12:25:12;;;;;;;4.30;3.90;;;;;;;30.99;40.30;98752.95;4348994;80;21075;-81
2021/07/06 12:31:30;;;;;;;4.92;3.95;;;;;;;30.81;39.02;98749.27;4348517;80;21078;-82
2021/07/06 12:37:32;;;;;;;4.62;4.22;;;;;;;30.38;40.33;98745.22;4336119;81;21587;-81
2021/07/06 12:43:33;;;;;;;4.60;4.20;;;;;;;30.08;39.58;98744.94;4336436;80;21629;-80
2021/07/06 12:49:35;;;;;;;6.80;4.60;;;;;;;29.84;39.74;98743.87;4321063;80;20960;-82
2021/07/06 12:55:36;;;;;;;7.62;4.10;;;;;;;29.71;40.65;98738.73;4346673;81;21074;-82
2021/07/06 13:01:38;;;;;;;5.00;4.37;;;;;;;29.63;41.29;98739.73;4346455;81;21050;-82
2021/07/06 13:07:44;;;;;;;4.58;4.17;;;;;;;29.65;41.60;98734.35;4350735;81;21074;-81
2021/07/06 13:13:46;;;;;;;4.80;4.28;;;;;;;29.52;41.90;98738.28;4332095;81;21035;-81
2021/07/06 13:20:09;;;;;;;5.08;4.58;;;;;;;29.42;42.48;98732.11;4377631;80;21014;-81
2021/07/06 13:26:11;;;;;;;5.20;4.30;;;;;;;29.29;41.26;98723.34;4292731;80;21044;-80
2021/07/06 13:32:12;;;;;;;6.10;4.42;;;;;;;29.07;42.98;98721.09;4295895;80;21040;-82
2021/07/06 13:38:16;;;;;;;5.90;4.40;;;;;;;29.02;42.55;98721.16;4336978;80;21050;-81
2021/07/06 13:44:17;;;;;;;4.92;4.40;;;;;;;28.96;41.57;98711.91;4297293;80;22258;-80
2021/07/06 13:50:22;;;;;;;5.83;5.20;;;;;;;28.88;42.38;98711.63;4346736;81;21054;-81
2021/07/06 13:56:27;;;;;;;5.03;4.47;;;;;;;28.84;42.79;98703.28;4354618;80;21070;-80
2021/07/06 14:02:29;;;;;;;6.07;4.10;;;;;;;28.78;42.26;98690.59;4330980;81;21090;-81
2021/07/06 14:08:30;;;;;;;5.72;5.10;;;;;;;28.71;43.48;98694.50;4326336;80;21542;-81
2021/07/06 14:14:32;;;;;;;6.37;4.95;;;;;;;28.74;43.66;98688.64;4346637;81;21082;-82
2021/07/06 14:20:34;;;;;;;5.72;4.55;;;;;;;28.75;44.36;98688.77;4357122;80;21114;-81
2021/07/06 14:26:35;;;;;;;8.60;4.80;;;;;;;28.80;44.52;98668.30;4296221;80;21013;-81
2021/07/06 14:32:38;;;;;;;6.35;4.70;;;;;;;28.84;44.64;98679.34;4294148;80;21008;-81
2021/07/06 14:38:39;;;;;;;7.70;4.83;;;;;;;28.84;44.91;98673.70;4347940;80;21026;-81
2021/07/06 14:44:41;;;;;;;5.37;4.20;;;;;;;28.81;45.01;98667.67;4349176;81;78811;-81
2021/07/06 14:50:42;;;;;;;5.53;5.03;;;;;;;28.82;44.78;98664.35;4358921;80;21134;-83
2021/07/06 14:56:44;;;;;;;5.65;5.05;;;;;;;28.78;44.55;98663.05;4368449;80;21083;-81
2021/07/06 15:02:46;;;;;;;6.85;5.15;;;;;;;28.74;45.05;98661.88;4368339;80;21018;-82
2021/07/06 15:08:47;;;;;;;5.12;4.62;;;;;;;28.67;45.29;98659.56;4266852;82;21066;-82
2021/07/06 15:14:48;;;;;;;6.33;4.62;;;;;;;28.73;45.57;98663.17;4268592;82;21106;-81
2021/07/06 15:20:50;;;;;;;4.70;4.20;;;;;;;28.76;45.97;98662.78;4360420;80;22159;-82
2021/07/06 15:26:55;;;;;;;6.28;4.75;;;;;;;28.77;45.92;98665.75;4397719;79;20990;-82
2021/07/06 15:32:59;;;;;;;6.30;5.07;;;;;;;28.68;46.31;98654.68;4388987;80;21020;-82
2021/07/06 15:39:21;;;;;;;;;;;;;;;;;;;;;
2021/07/06 15:45:23;;;;;;;6.08;5.40;;;;;;;28.49;46.09;98651.52;4141117;83;21112;-83
2021/07/06 15:51:25;;;;;;;8.60;5.45;;;;;;;28.31;46.53;98652.54;4186317;80;21627;-83
2021/07/06 15:57:28;;;;;;;6.28;5.65;;;;;;;28.28;46.68;98661.36;4328521;81;22187;-81
2021/07/06 16:03:29;;;;;;;7.33;5.65;;;;;;;28.13;47.13;98655.10;4348904;80;21034;-82
2021/07/06 16:09:30;;;;;;;6.50;5.75;;;;;;;28.06;47.27;98649.17;4346550;80;21069;-81
2021/07/06 16:15:33;;;;;;;6.53;5.25;;;;;;;27.95;47.65;98661.13;4351477;81;21003;-79
2021/07/06 16:21:37;;;;;;;7.20;6.50;;;;;;;27.96;47.76;98654.84;4342900;80;20983;-82
2021/07/06 16:27:38;;;;;;;7.42;6.72;;;;;;;27.90;47.74;98654.81;4346318;80;21046;-82
2021/07/06 16:33:44;;;;;;;7.50;6.20;;;;;;;27.81;48.30;98652.16;4342010;80;21010;-82
2021/07/06 16:39:47;;;;;;;17.98;6.87;;;;;;;27.74;48.39;98650.41;4343476;81;21163;-82
2021/07/06 16:45:49;;;;;;;6.97;6.28;;;;;;;27.63;48.70;98651.87;4337128;81;21798;-81
2021/07/06 18:07:56;;;;;;;8.85;6.25;;;;;;;25.98;53.09;98689.79;4345796;80;21007;-82
2021/07/06 18:13:57;;;;;;;6.95;6.25;;;;;;;25.98;53.09;98689.79;4338276;80;21889;-83
2021/07/06 18:20:01;;;;;;;11.08;7.20;;;;;;;25.81;53.45;98695.76;4340500;80;21038;-81
2021/07/06 18:26:02;;;;;;;8.53;6.45;;;;;;;25.64;53.84;98698.13;4341234;80;20998;-82
2021/07/06 18:32:05;;;;;;;12.03;6.85;;;;;;;25.45;54.16;98703.80;4332424;80;21362;-82
2021/07/06 18:38:06;;;;;;;14.55;6.75;;;;;;;25.29;54.65;98716.17;4336373;80;21046;-82
2021/07/06 18:44:14;;;;;;;7.78;6.72;;;;;;;25.14;55.06;98731.40;4333248;80;21067;-82
2021/07/06 18:50:14;;;;;;;9.85;6.70;;;;;;;24.98;55.54;98723.45;4327439;80;21497;-82
2021/07/06 18:56:16;;;;;;;8.33;7.40;;;;;;;24.83;55.96;98724.80;4331276;80;21052;-82
2021/07/06 19:08:37;;;;;;;7.53;6.70;;;;;;;24.56;56.66;98734.72;4331174;80;21074;-83
2021/07/06 19:14:39;;;;;;;8.40;6.87;;;;;;;24.40;57.23;98731.70;4329139;80;21396;-82
2021/07/06 19:20:40;;;;;;;9.53;7.08;;;;;;;24.24;57.67;98738.31;4335641;80;21641;-81
2021/07/06 19:26:45;;;;;;;12.18;7.35;;;;;;;24.06;58.25;98748.16;4328325;80;21106;-82
2021/07/06 19:32:46;;;;;;;9.13;7.30;;;;;;;23.94;58.64;98748.48;4334276;80;20983;-82
2021/07/06 19:38:49;;;;;;;7.97;6.72;;;;;;;23.87;59.15;98754.39;4332018;80;20991;-82
2021/07/06 19:44:50;;;;;;;8.10;6.60;;;;;;;23.81;59.60;98756.27;4288732;80;21001;-82
2021/07/06 19:50:52;;;;;;;10.55;6.97;;;;;;;23.77;60.07;98761.88;4252054;82;21090;-82
2021/07/06 19:56:53;;;;;;;10.10;7.33;;;;;;;23.75;60.37;98765.75;4152203;84;20992;-81
2021/07/06 20:02:54;;;;;;;9.78;7.67;;;;;;;23.67;60.95;98763.91;4183161;84;20950;-81
2021/07/06 20:08:56;;;;;;;9.50;7.58;;;;;;;23.57;61.52;98767.19;4149837;84;21029;-81
2021/07/06 20:14:58;;;;;;;13.95;8.28;;;;;;;23.46;62.13;98769.04;4174625;83;21891;-81
2021/07/06 20:20:59;;;;;;;9.35;7.10;;;;;;;23.39;62.92;98778.36;4251477;81;20984;-81
2021/07/06 20:27:03;;;;;;;11.15;8.10;;;;;;;23.27;63.16;98770.92;4149163;82;21133;-81
2021/07/06 20:33:04;;;;;;;13.50;9.18;;;;;;;23.23;63.63;98782.99;4176912;84;21940;-81
2021/07/06 20:39:06;;;;;;;14.87;10.32;;;;;;;23.12;63.77;98791.66;4154131;84;21137;-81
2021/07/06 20:45:09;;;;;;;12.28;9.55;;;;;;;22.96;63.99;98794.12;4140700;79;10000311;-81
2021/07/06 20:51:10;;;;;;;12.55;9.10;;;;;;;22.70;64.47;98786.45;4332823;80;21058;-81
2021/07/06 20:57:12;;;;;;;12.05;9.45;;;;;;;22.43;65.21;98789.12;4330530;80;20962;-82
2021/07/06 21:03:14;;;;;;;11.75;9.35;;;;;;;22.20;65.64;98785.46;4330070;80;21017;-82
2021/07/06 21:09:15;;;;;;;16.37;11.38;;;;;;;21.94;66.27;98782.06;4334307;80;21051;-81
2021/07/06 21:15:17;;;;;;;13.43;10.53;;;;;;;21.79;66.83;98788.63;4334171;80;21046;-80
2021/07/06 21:21:18;;;;;;;14.98;11.68;;;;;;;21.66;67.43;98793.62;4331802;80;21101;-82
2021/07/06 21:27:19;;;;;;;14.73;11.30;;;;;;;21.63;67.92;98797.33;4333025;80;21064;-81
2021/07/06 21:33:21;;;;;;;13.32;11.25;;;;;;;21.53;68.52;98790.75;4332863;80;20996;-82
2021/07/06 21:39:29;;;;;;;15.78;11.55;;;;;;;21.44;68.88;98791.45;4336186;80;21570;-81
2021/07/06 21:45:30;;;;;;;15.23;10.72;;;;;;;21.39;69.30;98797.59;4321535;80;21521;-81
2021/07/06 21:51:32;;;;;;;15.10;10.38;;;;;;;21.47;69.97;98795.35;4306640;81;21123;-80
2021/07/06 21:57:33;;;;;;;18.10;12.43;;;;;;;21.49;70.30;98799.23;4305684;81;21009;-80
2021/07/06 22:03:34;;;;;;;16.07;12.88;;;;;;;21.39;70.40;98796.83;4307990;81;21026;-81
2021/07/06 22:09:36;;;;;;;14.98;12.50;;;;;;;21.10;70.73;98805.38;4303328;81;20987;-81
2021/07/06 22:15:37;;;;;;;14.00;11.48;;;;;;;20.81;71.26;98798.41;4305352;81;21085;-81
2021/07/06 22:21:39;;;;;;;13.20;11.33;;;;;;;20.63;71.81;98794.81;4314003;79;21225;-80
2021/07/06 22:27:43;;;;;;;11.90;9.35;;;;;;;20.62;72.26;98800.22;4302918;81;21658;-80
2021/07/06 22:33:45;;;;;;;14.30;10.48;;;;;;;20.52;72.74;98798.55;4306446;81;21023;-80
2021/07/06 22:39:46;;;;;;;11.40;9.70;;;;;;;20.52;73.14;98799.15;4261213;82;21162;-80
2021/07/06 22:45:47;;;;;;;15.68;12.78;;;;;;;20.46;73.25;98812.05;4246672;82;21079;-82
2021/07/06 22:51:48;;;;;;;15.30;12.63;;;;;;;20.30;73.68;98810.16;4255249;81;21129;-80
2021/07/06 22:57:50;;;;;;;16.12;13.10;;;;;;;20.21;74.01;98810.05;4259824;82;21026;-80
2021/07/06 23:03:51;;;;;;;15.40;12.85;;;;;;;20.00;74.33;98812.82;4253536;81;21052;-81
2021/07/06 23:09:53;;;;;;;16.05;12.93;;;;;;;20.02;74.60;98812.37;4256041;81;21684;-81
2021/07/06 23:15:54;;;;;;;19.30;14.45;;;;;;;19.86;75.03;98824.34;4246119;81;21079;-81
2021/07/06 23:21:55;;;;;;;22.35;12.82;;;;;;;19.87;75.33;98820.34;4252595;81;21512;-80
2021/07/06 23:27:57;;;;;;;14.13;11.50;;;;;;;19.83;75.62;98821.67;4259042;82;21670;-80
2021/07/06 23:33:58;;;;;;;18.40;11.73;;;;;;;19.65;75.94;98824.19;4242485;82;21138;-79
2021/07/06 23:39:59;;;;;;;17.80;13.55;;;;;;;19.68;76.37;98816.36;4258994;81;21120;-81
2021/07/06 23:46:01;;;;;;;14.70;12.80;;;;;;;19.68;76.21;98818.53;4277801;81;20986;-80
2021/07/06 23:52:03;;;;;;;13.22;11.93;;;;;;;19.50;76.42;98817.45;4391361;79;21077;-81
2021/07/06 23:58:05;;;;;;;17.30;13.48;;;;;;;19.35;76.88;98817.07;4320004;80;21038;-81
